createdAt,value
2022-08-10T00:01:51.846Z,23.08
2022-08-10T00:04:22.402Z,23.06
2022-08-10T00:06:53.301Z,23.07
2022-08-10T00:09:23.835Z,23.05
2022-08-10T00:11:52.598Z,23.03
2022-08-10T00:14:21.132Z,22.99
2022-08-10T00:16:49.671Z,22.69
2022-08-10T00:19:18.458Z,22.90
2022-08-10T00:21:48.377Z,22.86
2022-08-10T00:24:17.100Z,22.84
2022-08-10T00:27:52.895Z,22.83
2022-08-10T00:29:35.482Z,22.75
2022-08-10T00:32:05.170Z,22.67
2022-08-10T00:34:34.719Z,22.53
2022-08-10T00:37:03.339Z,22.25
2022-08-10T00:39:36.038Z,22.38
2022-08-10T00:42:08.454Z,22.42
2022-08-10T00:44:38.664Z,22.44
2022-08-10T00:47:07.261Z,22.43
2022-08-10T00:49:38.957Z,22.46
2022-08-10T00:52:08.487Z,22.25
2022-08-10T00:54:38.477Z,22.43
2022-08-10T00:57:17.587Z,22.43
2022-08-10T00:59:59.021Z,22.37
2022-08-10T01:02:33.383Z,22.33
2022-08-10T01:05:05.780Z,22.31
2022-08-10T01:08:04.567Z,22.28
2022-08-10T01:10:42.794Z,22.20
2022-08-10T01:13:22.326Z,22.17
2022-08-10T01:15:57.793Z,22.16
2022-08-10T01:18:37.829Z,22.16
2022-08-10T01:21:30.482Z,22.10
2022-08-10T01:24:10.235Z,22.06
2022-08-10T01:27:01.182Z,22.00
2022-08-10T01:29:56.539Z,21.85
2022-08-10T01:32:34.294Z,21.83
2022-08-10T01:35:11.524Z,21.80
2022-08-10T01:37:51.903Z,21.75
2022-08-10T01:40:26.645Z,21.69
2022-08-10T01:43:08.057Z,21.69
2022-08-10T01:45:45.794Z,21.68
2022-08-10T01:48:32.741Z,21.50
2022-08-10T01:51:14.681Z,21.71
2022-08-10T01:53:47.239Z,21.47
2022-08-10T01:56:17.903Z,21.56
2022-08-10T01:58:49.764Z,21.46
2022-08-10T02:01:23.419Z,21.37
2022-08-10T02:04:03.531Z,21.10
2022-08-10T02:06:37.558Z,21.24
2022-08-10T02:09:08.402Z,21.18
2022-08-10T02:12:06.435Z,21.12
2022-08-10T02:14:32.925Z,20.08
2022-08-10T02:17:05.987Z,21.04
2022-08-10T02:19:36.821Z,20.98
2022-08-10T02:22:36.594Z,20.90
2022-08-10T02:24:58.901Z,19.84
2022-08-10T02:27:28.969Z,20.78
2022-08-10T02:29:59.225Z,20.78
2022-08-10T02:32:38.318Z,20.75
2022-08-10T02:35:18.621Z,20.70
2022-08-10T02:37:54.165Z,20.71
2022-08-10T02:45:02.315Z,20.75
2022-08-10T02:45:25.439Z,20.66
2022-08-10T02:46:18.244Z,20.65
2022-08-10T02:48:58.209Z,20.61
2022-08-10T02:52:07.928Z,20.58
2022-08-10T02:54:24.452Z,20.57
2022-08-10T02:56:57.576Z,20.54
2022-08-10T02:59:40.047Z,20.52
2022-08-10T03:02:13.269Z,20.37
2022-08-10T03:04:55.007Z,20.42
2022-08-10T03:07:43.087Z,20.39
2022-08-10T03:10:16.437Z,20.36
2022-08-10T03:12:47.117Z,20.31
2022-08-10T03:15:17.252Z,20.24
2022-08-10T03:17:58.314Z,20.28
2022-08-10T03:20:38.084Z,20.28
2022-08-10T03:23:10.961Z,20.10
2022-08-10T03:25:40.107Z,20.18
2022-08-10T03:28:09.143Z,20.16
2022-08-10T03:30:38.121Z,20.05
2022-08-10T03:33:08.844Z,19.95
2022-08-10T03:35:38.715Z,19.89
2022-08-10T03:38:07.204Z,19.81
2022-08-10T03:40:46.227Z,19.76
2022-08-10T03:43:18.525Z,19.71
2022-08-10T03:45:54.870Z,19.71
2022-08-10T03:48:44.568Z,19.71
2022-08-10T03:51:17.220Z,19.65
2022-08-10T03:54:05.626Z,19.57
2022-08-10T03:56:38.206Z,19.34
2022-08-10T03:59:08.206Z,19.43
2022-08-10T04:02:52.879Z,19.43
2022-08-10T04:04:29.716Z,19.54
2022-08-10T04:07:00.637Z,19.58
2022-08-10T04:09:54.764Z,19.55
2022-08-10T04:12:19.148Z,19.57
2022-08-10T04:14:50.771Z,19.58
2022-08-10T04:18:01.358Z,19.58
2022-08-10T04:20:19.442Z,19.54
2022-08-10T04:22:53.522Z,19.43
2022-08-10T04:25:23.855Z,19.36
2022-08-10T04:27:53.505Z,19.29
2022-08-10T04:30:22.330Z,19.32
2022-08-10T04:32:54.983Z,19.31
2022-08-10T04:35:25.128Z,19.35
2022-08-10T04:37:57.099Z,19.34
2022-08-10T04:40:30.491Z,19.24
2022-08-10T04:43:05.797Z,19.20
2022-08-10T04:45:49.682Z,19.17
2022-08-10T04:48:42.497Z,19.17
2022-08-10T04:51:16.007Z,19.06
2022-08-10T04:54:03.175Z,19.01
2022-08-10T04:56:36.863Z,18.71
2022-08-10T04:59:06.317Z,18.84
2022-08-10T05:02:22.015Z,18.85
2022-08-10T05:04:37.746Z,18.79
2022-08-10T05:07:15.815Z,18.77
2022-08-10T05:10:02.312Z,18.78
2022-08-10T05:12:36.515Z,18.82
2022-08-10T05:15:08.215Z,18.98
2022-08-10T05:17:36.903Z,18.81
2022-08-10T05:20:07.193Z,18.96
2022-08-10T05:22:37.850Z,18.93
2022-08-10T05:25:10.859Z,18.97
2022-08-10T05:27:39.825Z,19.01
2022-08-10T05:30:10.325Z,19.06
2022-08-10T05:32:56.869Z,19.04
2022-08-10T05:35:26.721Z,19.09
2022-08-10T05:38:10.473Z,19.17
2022-08-10T05:40:47.433Z,19.28
2022-08-10T05:43:19.289Z,19.45
2022-08-10T05:46:17.954Z,19.36
2022-08-10T05:48:53.818Z,19.77
2022-08-10T05:51:27.495Z,19.91
2022-08-10T05:54:01.257Z,20.13
2022-08-10T05:56:56.139Z,20.33
2022-08-10T06:00:33.233Z,20.49
2022-08-10T06:02:32.984Z,20.70
2022-08-10T06:05:07.219Z,20.90
2022-08-10T06:07:38.488Z,20.86
2022-08-10T06:10:10.566Z,21.16
2022-08-10T06:12:55.268Z,21.23
2022-08-10T06:15:43.349Z,21.42
2022-08-10T06:18:15.697Z,21.75
2022-08-10T06:20:44.668Z,22.19
2022-08-10T06:23:14.375Z,22.60
2022-08-10T06:26:09.916Z,23.28
2022-08-10T06:28:35.404Z,23.82
2022-08-10T06:31:05.520Z,24.63
2022-08-10T06:33:36.787Z,25.25
2022-08-10T06:36:07.562Z,25.76
2022-08-10T06:38:39.501Z,26.35
2022-08-10T06:41:19.448Z,26.85
2022-08-10T06:43:58.021Z,27.37
2022-08-10T06:46:29.189Z,27.86
2022-08-10T06:49:02.709Z,28.27
2022-08-10T06:51:33.457Z,28.83
2022-08-10T06:54:05.792Z,29.24
2022-08-10T06:56:43.696Z,29.57
2022-08-10T06:59:27.278Z,29.93
2022-08-10T07:02:00.792Z,30.83
2022-08-10T07:04:35.299Z,30.69
2022-08-10T07:07:05.601Z,30.81
2022-08-10T07:09:37.795Z,31.21
2022-08-10T07:12:09.603Z,31.55
2022-08-10T07:14:46.813Z,31.97
2022-08-10T07:17:18.484Z,32.22
2022-08-10T07:19:49.473Z,32.35
2022-08-10T07:23:27.284Z,32.78
2022-08-10T07:25:12.042Z,32.93
2022-08-10T07:28:00.419Z,33.08
2022-08-10T07:30:33.721Z,33.37
2022-08-10T07:33:02.721Z,33.58
2022-08-10T07:35:41.776Z,33.71
2022-08-10T07:38:19.052Z,33.88
2022-08-10T07:40:49.862Z,33.92
2022-08-10T07:43:20.094Z,34.04
2022-08-10T07:45:50.888Z,34.17
2022-08-10T07:48:23.589Z,34.33
2022-08-10T07:50:57.977Z,34.40
2022-08-10T07:53:29.140Z,34.50
2022-08-10T07:56:01.882Z,34.50
2022-08-10T07:58:46.440Z,34.58
2022-08-10T08:01:25.046Z,34.42
2022-08-10T08:04:10.706Z,34.28
2022-08-10T08:06:42.019Z,34.04
2022-08-10T08:09:10.788Z,33.96
2022-08-10T08:11:40.575Z,33.81
2022-08-10T08:14:10.469Z,33.60
2022-08-10T08:16:43.572Z,33.45
2022-08-10T08:19:37.130Z,33.46
2022-08-10T08:24:07.809Z,33.36
2022-08-10T08:24:52.687Z,33.14
2022-08-10T08:27:22.144Z,33.29
2022-08-10T08:29:52.987Z,33.06
2022-08-10T08:32:24.365Z,33.27
2022-08-10T08:34:57.089Z,33.26
2022-08-10T08:38:31.941Z,33.23
2022-08-10T08:40:23.126Z,33.05
2022-08-10T08:43:17.991Z,33.15
2022-08-10T08:46:11.198Z,33.21
2022-08-10T08:48:55.993Z,33.21
2022-08-10T08:52:07.749Z,33.26
2022-08-10T08:54:39.031Z,33.23
2022-08-10T08:57:23.016Z,33.28
2022-08-10T09:00:10.586Z,33.27
2022-08-10T09:03:11.358Z,33.33
2022-08-10T09:05:58.835Z,33.35
2022-08-10T09:09:04.804Z,33.49
2022-08-10T09:11:55.615Z,33.70
2022-08-10T09:14:31.928Z,33.83
2022-08-10T09:17:10.835Z,33.86
2022-08-10T09:19:47.783Z,33.93
2022-08-10T09:22:27.215Z,34.08
2022-08-10T09:25:00.310Z,34.20
2022-08-10T09:27:43.358Z,34.38
2022-08-10T09:30:16.379Z,34.48
2022-08-10T09:36:14.152Z,34.58
2022-08-10T09:36:26.785Z,34.69
2022-08-10T09:38:53.386Z,34.81
2022-08-10T09:41:34.234Z,35.00
2022-08-10T09:44:13.050Z,35.12
2022-08-10T09:46:59.998Z,35.23
2022-08-10T09:49:54.390Z,35.22
2022-08-10T09:52:33.233Z,35.26
2022-08-10T09:55:12.700Z,35.40
2022-08-10T09:57:56.792Z,35.56
2022-08-10T10:00:31.841Z,35.59
2022-08-10T10:03:10.474Z,35.66
2022-08-10T10:05:52.393Z,35.60
2022-08-10T10:08:31.913Z,35.82
2022-08-10T10:11:09.289Z,35.86
2022-08-10T10:14:02.505Z,35.98
2022-08-10T10:16:47.345Z,36.07
2022-08-10T10:19:36.165Z,36.25
2022-08-10T10:22:26.461Z,36.39
2022-08-10T10:25:20.991Z,36.47
2022-08-10T10:27:59.499Z,35.88
2022-08-10T10:30:37.859Z,36.60
2022-08-10T10:33:15.238Z,36.74
2022-08-10T10:35:52.318Z,36.79
2022-08-10T10:38:24.492Z,36.77
2022-08-10T10:41:01.832Z,36.80
2022-08-10T10:43:42.362Z,36.92
2022-08-10T10:46:25.826Z,36.99
2022-08-10T10:49:04.978Z,37.09
2022-08-10T10:51:39.818Z,37.10
2022-08-10T10:54:10.997Z,37.33
2022-08-10T10:56:51.378Z,37.37
2022-08-10T10:59:55.958Z,37.20
2022-08-10T11:02:36.687Z,37.53
2022-08-10T11:05:16.487Z,37.53
2022-08-10T11:07:53.177Z,37.43
2022-08-10T11:10:32.926Z,37.36
2022-08-10T11:14:24.852Z,37.37
2022-08-10T11:16:14.592Z,37.20
2022-08-10T11:18:58.072Z,37.35
2022-08-10T11:21:44.521Z,37.53
2022-08-10T11:24:47.491Z,37.76
2022-08-10T11:27:22.066Z,37.90
2022-08-10T11:30:00.444Z,37.89
2022-08-10T11:32:36.897Z,37.87
2022-08-10T11:35:13.594Z,37.86
2022-08-10T11:38:31.230Z,37.81
2022-08-10T11:40:45.726Z,37.73
2022-08-10T11:43:22.081Z,37.86
2022-08-10T11:45:55.952Z,37.81
2022-08-10T11:48:53.531Z,37.79
2022-08-10T11:51:31.607Z,37.78
2022-08-10T11:54:06.573Z,37.81
2022-08-10T11:56:50.909Z,37.81
2022-08-10T11:59:40.031Z,37.87
2022-08-10T12:02:10.605Z,37.87
2022-08-10T12:04:46.699Z,37.78
2022-08-10T12:10:02.210Z,37.79
2022-08-10T12:10:13.610Z,37.94
2022-08-10T12:12:48.426Z,38.02
2022-08-10T12:15:25.493Z,38.09
2022-08-10T12:17:57.078Z,38.09
2022-08-10T12:20:31.054Z,38.09
2022-08-10T12:23:03.090Z,38.19
2022-08-10T12:25:57.025Z,38.13
2022-08-10T12:28:49.158Z,38.38
2022-08-10T12:31:24.611Z,38.38
2022-08-10T12:34:05.402Z,38.20
2022-08-10T12:36:41.508Z,38.26
2022-08-10T12:39:16.991Z,38.26
2022-08-10T12:41:51.847Z,38.31
2022-08-10T12:44:41.495Z,38.31
2022-08-10T12:47:20.143Z,38.09
2022-08-10T12:50:29.391Z,37.97
2022-08-10T12:53:06.626Z,37.90
2022-08-10T12:55:39.581Z,37.86
2022-08-10T12:58:59.102Z,37.92
2022-08-10T13:01:16.281Z,37.92
2022-08-10T13:04:23.370Z,37.72
2022-08-10T13:06:41.812Z,37.58
2022-08-10T13:09:13.112Z,37.78
2022-08-10T13:12:35.780Z,37.83
2022-08-10T13:14:38.542Z,37.72
2022-08-10T13:17:09.383Z,37.61
2022-08-10T13:19:56.140Z,37.53
2022-08-10T13:22:30.290Z,37.53
2022-08-10T13:25:04.343Z,37.55
2022-08-10T13:28:03.255Z,37.42
2022-08-10T13:30:35.597Z,37.40
2022-08-10T13:33:08.677Z,37.42
2022-08-10T13:35:37.931Z,37.55
2022-08-10T13:38:08.308Z,37.57
2022-08-10T13:40:40.087Z,37.46
2022-08-10T13:43:10.175Z,37.53
2022-08-10T13:45:47.903Z,37.54
2022-08-10T13:48:21.767Z,37.56
2022-08-10T13:50:53.554Z,37.33
2022-08-10T13:53:23.580Z,37.50
2022-08-10T13:55:56.740Z,37.33
2022-08-10T13:58:30.426Z,37.26
2022-08-10T14:01:01.309Z,37.27
2022-08-10T14:03:35.373Z,37.30
2022-08-10T14:06:07.003Z,37.28
2022-08-10T14:08:36.898Z,37.25
2022-08-10T14:11:12.811Z,37.28
2022-08-10T14:13:46.732Z,37.23
2022-08-10T14:16:15.478Z,37.07
2022-08-10T14:18:45.942Z,37.07
2022-08-10T14:21:15.178Z,37.11
2022-08-10T14:23:52.972Z,37.15
2022-08-10T14:26:26.230Z,37.15
2022-08-10T14:28:57.498Z,37.14
2022-08-10T14:31:33.610Z,36.28
2022-08-10T14:34:06.803Z,37.00
2022-08-10T14:36:43.448Z,36.85
2022-08-10T14:39:16.367Z,36.78
2022-08-10T14:42:04.553Z,36.74
2022-08-10T14:44:46.854Z,36.72
2022-08-10T14:47:52.232Z,36.72
2022-08-10T14:50:07.697Z,36.70
2022-08-10T14:52:43.911Z,36.67
2022-08-10T14:55:19.510Z,36.50
2022-08-10T14:58:17.276Z,36.40
2022-08-10T15:00:43.031Z,36.24
2022-08-10T15:04:00.931Z,36.16
2022-08-10T15:06:17.251Z,36.07
2022-08-10T15:08:48.049Z,36.00
2022-08-10T15:12:13.389Z,35.89
2022-08-10T15:14:41.613Z,35.80
2022-08-10T15:17:03.247Z,35.75
2022-08-10T15:20:02.422Z,35.78
2022-08-10T15:22:47.094Z,35.78
2022-08-10T15:25:25.221Z,35.73
2022-08-10T15:27:58.131Z,35.52
2022-08-10T15:30:42.920Z,35.61
2022-08-10T15:34:02.206Z,35.41
2022-08-10T15:36:41.928Z,35.45
2022-08-10T15:40:22.305Z,35.40
2022-08-10T15:42:08.581Z,35.41
2022-08-10T15:44:43.169Z,35.42
2022-08-10T15:47:20.998Z,35.37
2022-08-10T15:49:56.275Z,35.27
2022-08-10T15:52:38.774Z,35.18
2022-08-10T15:55:43.257Z,34.88
2022-08-10T15:58:14.345Z,34.86
2022-08-10T16:00:50.918Z,34.75
2022-08-10T16:03:26.681Z,34.53
2022-08-10T16:06:01.989Z,34.33
2022-08-10T16:08:56.125Z,34.15
2022-08-10T16:11:37.466Z,34.20
2022-08-10T16:14:17.462Z,34.19
2022-08-10T16:16:51.281Z,34.22
2022-08-10T16:19:24.896Z,34.21
2022-08-10T16:22:00.195Z,34.15
2022-08-10T16:24:33.866Z,34.07
2022-08-10T16:27:06.628Z,34.01
2022-08-10T16:29:56.192Z,33.92
2022-08-10T16:32:26.667Z,33.85
2022-08-10T16:34:57.748Z,33.90
2022-08-10T16:37:58.911Z,33.92
2022-08-10T16:40:24.098Z,33.88
2022-08-10T16:42:54.560Z,33.79
2022-08-10T16:45:30.311Z,33.71
2022-08-10T16:47:59.507Z,33.66
2022-08-10T16:50:32.251Z,33.61
2022-08-10T16:53:03.599Z,33.55
2022-08-10T16:55:49.478Z,33.48
2022-08-10T16:58:27.470Z,33.44
2022-08-10T17:01:02.129Z,33.35
2022-08-10T17:04:07.835Z,32.86
2022-08-10T17:06:27.947Z,33.14
2022-08-10T17:08:59.649Z,33.08
2022-08-10T17:11:31.696Z,32.97
2022-08-10T17:14:03.266Z,32.88
2022-08-10T17:16:36.335Z,32.88
2022-08-10T17:19:08.583Z,32.82
2022-08-10T17:21:51.916Z,32.76
2022-08-10T17:24:25.243Z,32.70
2022-08-10T17:26:57.693Z,32.58
2022-08-10T17:29:57.315Z,32.55
2022-08-10T17:32:25.696Z,32.49
2022-08-10T17:34:57.930Z,32.42
2022-08-10T17:37:37.620Z,32.36
2022-08-10T17:40:10.047Z,32.28
2022-08-10T17:42:41.021Z,32.27
2022-08-10T17:45:20.900Z,32.16
2022-08-10T17:48:09.460Z,32.21
2022-08-10T17:50:39.950Z,32.14
2022-08-10T17:53:16.757Z,32.11
2022-08-10T17:55:47.364Z,32.03
2022-08-10T17:58:18.738Z,31.80
2022-08-10T18:00:50.088Z,31.92
2022-08-10T18:03:25.641Z,31.80
2022-08-10T18:05:56.385Z,31.70
2022-08-10T18:08:30.790Z,31.50
2022-08-10T18:11:00.206Z,31.58
2022-08-10T18:13:56.022Z,31.49
2022-08-10T18:16:26.071Z,31.37
2022-08-10T18:19:00.570Z,31.29
2022-08-10T18:21:32.246Z,31.16
2022-08-10T18:24:07.569Z,31.07
2022-08-10T18:26:38.252Z,30.85
2022-08-10T18:29:12.758Z,30.95
2022-08-10T18:31:48.984Z,30.83
2022-08-10T18:34:20.948Z,30.29
2022-08-10T18:36:51.014Z,30.64
2022-08-10T18:39:27.183Z,30.62
2022-08-10T18:42:04.665Z,30.57
2022-08-10T18:44:39.077Z,30.51
2022-08-10T18:47:13.953Z,30.37
2022-08-10T18:49:55.529Z,30.23
2022-08-10T18:52:28.177Z,30.15
2022-08-10T18:55:14.254Z,30.04
2022-08-10T18:58:12.572Z,29.94
2022-08-10T19:00:54.779Z,29.89
2022-08-10T19:03:35.939Z,29.81
2022-08-10T19:06:23.775Z,29.74
2022-08-10T19:09:47.470Z,29.62
2022-08-10T19:12:31.214Z,29.52
2022-08-10T19:15:10.009Z,29.45
2022-08-10T19:18:03.157Z,29.42
2022-08-10T19:20:39.127Z,29.35
2022-08-10T19:23:18.363Z,29.25
2022-08-10T19:26:42.866Z,29.16
2022-08-10T19:28:55.544Z,29.05
2022-08-10T19:31:42.002Z,28.94
2022-08-10T19:34:34.931Z,28.84
2022-08-10T19:37:15.406Z,28.74
2022-08-10T19:40:00.459Z,28.68
2022-08-10T19:42:36.371Z,28.67
2022-08-10T19:45:56.153Z,28.61
2022-08-10T19:48:16.621Z,28.54
2022-08-10T19:50:48.772Z,28.47
2022-08-10T19:53:26.147Z,27.46
2022-08-10T19:56:18.549Z,28.28
2022-08-10T19:58:57.571Z,28.23
2022-08-10T20:01:54.393Z,28.19
2022-08-10T20:04:28.822Z,28.12
2022-08-10T20:07:10.083Z,27.85
2022-08-10T20:09:47.351Z,27.95
2022-08-10T20:12:24.856Z,27.89
2022-08-10T20:15:03.127Z,27.83
2022-08-10T20:17:45.019Z,27.77
2022-08-10T20:20:30.676Z,27.70
2022-08-10T20:23:09.659Z,27.64
2022-08-10T20:25:39.770Z,27.58
2022-08-10T20:28:19.427Z,27.55
2022-08-10T20:30:53.286Z,27.52
2022-08-10T20:33:29.344Z,27.45
2022-08-10T20:36:04.450Z,26.63
2022-08-10T20:38:39.750Z,27.29
2022-08-10T20:41:17.628Z,27.20
2022-08-10T20:44:12.753Z,27.26
2022-08-10T20:46:46.958Z,27.23
2022-08-10T20:49:30.338Z,27.01
2022-08-10T20:52:03.333Z,27.06
2022-08-10T20:54:36.060Z,27.14
2022-08-10T20:57:55.281Z,27.07
2022-08-10T21:00:13.911Z,27.03
2022-08-10T21:02:58.662Z,27.05
2022-08-10T21:05:52.941Z,26.97
2022-08-10T21:08:30.183Z,26.86
2022-08-10T21:11:08.691Z,26.73
2022-08-10T21:14:03.919Z,26.42
2022-08-10T21:16:47.337Z,26.58
2022-08-10T21:19:52.369Z,26.53
2022-08-10T21:22:29.409Z,26.30
2022-08-10T21:25:02.792Z,26.44
2022-08-10T21:28:03.487Z,26.26
2022-08-10T21:31:00.250Z,26.15
2022-08-10T21:33:36.518Z,26.04
2022-08-10T21:36:10.616Z,25.75
2022-08-10T21:38:48.497Z,25.84
2022-08-10T21:41:57.677Z,25.85
2022-08-10T21:45:08.009Z,25.77
2022-08-10T21:48:17.284Z,25.64
2022-08-10T21:51:16.266Z,25.54
2022-08-10T21:54:25.950Z,25.46
2022-08-10T21:57:19.597Z,25.38
2022-08-10T22:03:17.384Z,25.12
2022-08-10T22:06:09.595Z,25.05
2022-08-10T22:08:59.758Z,25.01
2022-08-10T22:11:55.530Z,24.95
2022-08-10T22:14:48.027Z,24.92
2022-08-10T22:18:00.768Z,24.91
2022-08-10T22:20:46.350Z,24.96
2022-08-10T22:24:16.504Z,25.06
2022-08-10T22:27:46.352Z,25.15
2022-08-10T22:30:27.118Z,25.23
2022-08-10T22:31:28.295Z,25.27
2022-08-10T22:33:37.284Z,25.31
2022-08-10T22:36:53.554Z,25.34
2022-08-10T22:40:10.119Z,24.87
2022-08-10T22:43:10.316Z,25.43
2022-08-10T22:46:05.043Z,25.46
2022-08-10T22:48:59.148Z,25.46
2022-08-10T22:51:35.838Z,25.53
2022-08-10T22:54:30.473Z,25.58
2022-08-10T22:57:18.930Z,25.59
2022-08-10T22:59:50.426Z,25.61
2022-08-10T23:02:30.581Z,25.65
2022-08-10T23:05:06.860Z,25.69
2022-08-10T23:07:38.234Z,25.74
2022-08-10T23:10:10.305Z,25.80
2022-08-10T23:12:43.859Z,25.02
2022-08-10T23:15:38.766Z,25.88
2022-08-10T23:18:28.088Z,25.94
2022-08-10T23:20:58.361Z,25.98
2022-08-10T23:23:30.147Z,25.99
2022-08-10T23:26:01.301Z,26.00
2022-08-10T23:28:38.769Z,26.06
2022-08-10T23:32:01.124Z,26.07
2022-08-10T23:34:21.878Z,26.09
2022-08-10T23:36:52.030Z,26.14
2022-08-10T23:39:26.624Z,26.22
2022-08-10T23:42:03.269Z,26.23
2022-08-10T23:44:38.440Z,26.02
2022-08-10T23:47:09.957Z,26.19
2022-08-10T23:49:39.808Z,26.25
2022-08-10T23:52:13.473Z,26.28
2022-08-10T23:54:48.027Z,26.10
2022-08-10T23:57:21.221Z,26.24
2022-08-10T23:59:55.753Z,25.20
